createdAt,value
2019-04-05T00:01:50.360Z,47.20
2019-04-05T00:04:20.186Z,47.48
2019-04-05T00:06:49.987Z,47.25
2019-04-05T00:09:19.801Z,50.48
2019-04-05T00:11:49.623Z,44.53
2019-04-05T00:14:19.374Z,48.83
2019-04-05T00:16:49.155Z,51.10
2019-04-05T00:19:18.900Z,51.20
2019-04-05T00:21:48.748Z,49.35
2019-04-05T00:24:18.508Z,48.13
2019-04-05T00:26:48.208Z,49.42
2019-04-05T00:29:17.958Z,46.98
2019-04-05T00:31:47.772Z,48.05
2019-04-05T00:34:17.585Z,49.25
2019-04-05T00:36:47.428Z,50.83
2019-04-05T00:39:18.026Z,49.38
2019-04-05T00:41:47.801Z,48.23
2019-04-05T00:44:17.458Z,50.50
2019-04-05T00:46:47.270Z,51.50
2019-04-05T00:49:17.020Z,50.55
2019-04-05T00:51:47.781Z,48.33
2019-04-05T00:54:17.553Z,51.90
2019-04-05T00:56:47.290Z,52.70
2019-04-05T00:59:17.037Z,49.88
2019-04-05T01:01:47.545Z,54.18
2019-04-05T01:04:17.270Z,53.05
2019-04-05T01:06:47.181Z,52.90
2019-04-05T01:09:17.126Z,52.20
2019-04-05T01:11:47.141Z,51.08
2019-04-05T01:14:17.746Z,54.00
2019-04-05T01:16:47.636Z,50.65
2019-04-05T01:19:18.120Z,49.27
2019-04-05T01:21:50.717Z,52.30
2019-04-05T01:24:21.738Z,51.60
2019-04-05T01:26:52.127Z,52.95
2019-04-05T01:29:22.483Z,47.93
2019-04-05T01:31:52.283Z,51.92
2019-04-05T01:34:22.020Z,49.80
2019-04-05T01:36:51.974Z,47.33
2019-04-05T01:39:21.705Z,49.40
2019-04-05T01:41:51.910Z,51.80
2019-04-05T01:44:21.900Z,50.43
2019-04-05T01:46:51.606Z,53.92
2019-04-05T01:49:21.319Z,48.10
2019-04-05T01:51:51.382Z,48.60
2019-04-05T01:54:21.452Z,51.50
2019-04-05T01:56:51.154Z,52.40
2019-04-05T01:59:20.859Z,49.40
2019-04-05T02:01:51.697Z,47.03
2019-04-05T02:04:21.507Z,49.05
2019-04-05T02:06:51.624Z,47.60
2019-04-05T02:09:21.347Z,46.75
2019-04-05T02:11:53.151Z,48.25
2019-04-05T02:14:23.027Z,49.88
2019-04-05T02:16:52.760Z,45.63
2019-04-05T02:19:22.497Z,45.25
2019-04-05T02:21:52.475Z,45.78
2019-04-05T02:24:22.306Z,45.63
2019-04-05T02:26:52.039Z,49.48
2019-04-05T02:29:21.764Z,48.73
2019-04-05T02:31:51.573Z,49.58
2019-04-05T02:34:21.291Z,47.98
2019-04-05T02:36:51.107Z,49.03
2019-04-05T02:39:20.999Z,47.70
2019-04-05T02:41:53.722Z,46.25
2019-04-05T02:44:24.541Z,46.98
2019-04-05T02:46:55.887Z,45.10
2019-04-05T02:49:29.274Z,46.30
2019-04-05T02:52:02.818Z,43.45
2019-04-05T02:54:34.265Z,49.15
2019-04-05T02:57:04.578Z,48.68
2019-04-05T02:59:35.869Z,50.10
2019-04-05T03:02:06.564Z,52.50
2019-04-05T03:04:36.310Z,49.05
2019-04-05T03:07:06.546Z,46.45
2019-04-05T03:09:36.900Z,46.25
2019-04-05T03:12:06.917Z,48.38
2019-04-05T03:14:37.626Z,52.43
2019-04-05T03:17:09.249Z,50.45
2019-04-05T03:19:41.332Z,47.17
2019-04-05T03:22:14.224Z,53.65
2019-04-05T03:24:46.837Z,51.05
2019-04-05T03:27:21.023Z,49.85
2019-04-05T03:29:51.344Z,52.25
2019-04-05T03:32:21.269Z,51.70
2019-04-05T03:34:51.162Z,51.45
2019-04-05T03:37:21.424Z,51.18
2019-04-05T03:39:51.460Z,51.08
2019-04-05T03:42:21.933Z,46.80
2019-04-05T03:44:52.008Z,51.20
2019-04-05T03:47:21.819Z,53.13
2019-04-05T03:49:51.524Z,47.78
2019-04-05T03:52:21.579Z,49.00
2019-04-05T03:54:51.350Z,50.15
2019-04-05T03:57:21.612Z,47.58
2019-04-05T03:59:51.400Z,49.63
2019-04-05T04:02:23.499Z,53.73
2019-04-05T04:04:53.640Z,52.03
2019-04-05T04:07:23.634Z,50.40
2019-04-05T04:09:54.426Z,49.83
2019-04-05T04:12:24.442Z,48.73
2019-04-05T04:14:57.098Z,50.45
2019-04-05T04:17:26.832Z,47.95
2019-04-05T04:19:57.827Z,46.50
2019-04-05T04:22:32.193Z,46.18
2019-04-05T04:25:03.027Z,47.38
2019-04-05T04:27:33.283Z,50.12
2019-04-05T04:30:03.544Z,48.95
2019-04-05T04:32:33.510Z,49.70
2019-04-05T04:35:03.960Z,46.25
2019-04-05T04:37:33.997Z,46.75
2019-04-05T04:40:05.398Z,50.17
2019-04-05T04:42:35.292Z,49.30
2019-04-05T04:45:12.374Z,48.15
2019-04-05T04:47:39.310Z,47.50
2019-04-05T04:50:10.089Z,48.30
2019-04-05T04:52:41.561Z,52.60
2019-04-05T04:55:11.771Z,50.25
2019-04-05T04:57:41.605Z,50.98
2019-04-05T05:00:11.622Z,52.33
2019-04-05T05:02:41.903Z,52.45
2019-04-05T05:05:12.679Z,52.43
2019-04-05T05:07:42.468Z,53.87
2019-04-05T05:10:14.322Z,46.40
2019-04-05T05:12:45.553Z,48.50
2019-04-05T05:15:15.944Z,48.20
2019-04-05T05:17:58.121Z,50.15
2019-04-05T05:20:18.966Z,51.75
2019-04-05T05:22:48.864Z,50.78
2019-04-05T05:25:18.746Z,47.98
2019-04-05T05:27:48.735Z,53.08
2019-04-05T05:30:19.153Z,51.25
2019-04-05T05:32:49.065Z,49.45
2019-04-05T05:35:18.845Z,51.50
2019-04-05T05:37:49.569Z,50.80
2019-04-05T05:40:19.720Z,49.98
2019-04-05T05:42:49.406Z,50.70
2019-04-05T05:45:20.340Z,54.70
2019-04-05T05:47:52.177Z,50.38
2019-04-05T05:50:21.773Z,50.70
2019-04-05T05:52:52.386Z,53.75
2019-04-05T05:55:22.098Z,51.30
2019-04-05T05:57:54.312Z,52.40
2019-04-05T06:00:24.587Z,52.70
2019-04-05T06:02:54.325Z,50.60
2019-04-05T06:05:24.066Z,55.10
2019-04-05T06:07:53.976Z,53.75
2019-04-05T06:10:23.818Z,49.60
2019-04-05T06:12:53.493Z,53.28
2019-04-05T06:15:23.259Z,56.77
2019-04-05T06:18:04.117Z,55.03
2019-04-05T06:20:24.614Z,51.37
2019-04-05T06:22:54.374Z,48.45
2019-04-05T06:25:24.192Z,48.05
2019-04-05T06:27:53.902Z,49.25
2019-04-05T06:30:23.945Z,48.35
2019-04-05T06:32:53.778Z,50.40
2019-04-05T06:35:23.750Z,49.10
2019-04-05T06:37:53.488Z,48.92
2019-04-05T06:40:23.283Z,46.75
2019-04-05T06:43:06.975Z,47.10
2019-04-05T06:45:36.784Z,43.68
2019-04-05T06:48:18.496Z,44.00
2019-04-05T06:50:38.089Z,42.70
2019-04-05T06:53:07.804Z,45.25
2019-04-05T06:55:37.755Z,41.48
2019-04-05T06:58:10.188Z,42.35
2019-04-05T07:00:39.015Z,42.23
2019-04-05T07:03:08.817Z,40.03
2019-04-05T07:05:38.591Z,39.58
2019-04-05T07:08:08.415Z,39.58
2019-04-05T07:10:38.153Z,37.00
2019-04-05T07:13:08.102Z,37.63
2019-04-05T07:15:38.027Z,38.58
2019-04-05T07:18:07.880Z,36.45
2019-04-05T07:20:37.770Z,38.28
2019-04-05T07:23:07.544Z,37.23
2019-04-05T07:25:37.326Z,36.77
2019-04-05T07:28:07.294Z,36.38
2019-04-05T07:30:37.128Z,35.05
2019-04-05T07:33:06.875Z,36.58
2019-04-05T07:35:38.234Z,36.05
2019-04-05T07:38:09.770Z,32.73
2019-04-05T07:40:39.584Z,33.33
2019-04-05T07:43:09.415Z,32.58
2019-04-05T07:45:39.238Z,32.53
2019-04-05T07:48:09.075Z,33.05
2019-04-05T07:50:38.780Z,34.90
2019-04-05T07:53:08.473Z,33.80
2019-04-05T07:55:38.191Z,32.75
2019-04-05T07:58:08.721Z,32.20
2019-04-05T08:00:46.082Z,33.30
2019-04-05T08:03:16.326Z,33.55
2019-04-05T08:05:46.548Z,34.00
2019-04-05T08:08:49.243Z,31.75
2019-04-05T08:11:19.680Z,32.93
2019-04-05T08:13:52.586Z,33.02
2019-04-05T08:16:22.434Z,32.05
2019-04-05T08:18:57.932Z,32.23
2019-04-05T08:21:23.787Z,33.02
2019-04-05T08:23:53.685Z,31.80
2019-04-05T08:26:24.375Z,29.87
2019-04-05T08:28:54.583Z,29.63
2019-04-05T08:31:24.521Z,32.25
2019-04-05T08:33:54.123Z,31.40
2019-04-05T08:36:23.946Z,27.77
2019-04-05T08:38:53.648Z,27.82
2019-04-05T08:41:24.379Z,25.70
2019-04-05T08:43:54.363Z,26.93
2019-04-05T08:46:24.117Z,25.20
2019-04-05T08:48:54.403Z,20.62
2019-04-05T08:51:24.738Z,20.32
2019-04-05T08:53:55.178Z,20.43
2019-04-05T08:56:25.127Z,22.82
2019-04-05T08:58:55.486Z,21.33
2019-04-05T09:01:25.338Z,21.97
2019-04-05T09:03:55.149Z,18.77
2019-04-05T09:06:24.981Z,19.25
2019-04-05T09:08:54.727Z,18.12
2019-04-05T09:11:24.591Z,15.70
2019-04-05T09:13:54.351Z,15.63
2019-04-05T09:16:24.198Z,15.68
2019-04-05T09:18:53.964Z,14.25
2019-04-05T09:21:23.934Z,14.35
2019-04-05T09:23:53.715Z,13.55
2019-04-05T09:26:23.445Z,12.95
2019-04-05T09:28:53.257Z,12.65
2019-04-05T09:31:24.045Z,10.40
2019-04-05T09:33:53.942Z,9.58
2019-04-05T09:36:23.834Z,8.18
2019-04-05T09:38:53.575Z,10.15
2019-04-05T09:41:23.461Z,10.05
2019-04-05T09:43:53.369Z,8.35
2019-04-05T09:46:23.242Z,7.10
2019-04-05T09:48:52.983Z,7.22
2019-04-05T09:51:23.802Z,6.72
2019-04-05T09:53:53.492Z,7.25
2019-04-05T09:56:23.250Z,8.18
2019-04-05T09:58:52.997Z,7.30
2019-04-05T10:01:22.870Z,6.95
2019-04-05T10:03:53.528Z,7.25
2019-04-05T10:06:23.980Z,6.55
2019-04-05T10:08:53.789Z,6.75
2019-04-05T10:11:23.542Z,7.60
2019-04-05T10:13:53.478Z,7.03
2019-04-05T10:16:23.191Z,7.40
2019-04-05T10:18:53.129Z,7.47
2019-04-05T10:21:22.917Z,7.00
2019-04-05T10:23:52.723Z,7.03
2019-04-05T10:26:22.549Z,7.62
2019-04-05T10:28:52.355Z,7.12
2019-04-05T10:31:22.811Z,6.62
2019-04-05T10:33:52.599Z,6.97
2019-04-05T10:36:22.382Z,7.15
2019-04-05T10:38:52.214Z,7.25
2019-04-05T10:41:24.999Z,7.78
2019-04-05T10:43:54.826Z,7.15
2019-04-05T10:46:26.095Z,7.35
2019-04-05T10:48:55.678Z,6.92
2019-04-05T10:51:25.551Z,7.30
2019-04-05T10:53:55.311Z,7.08
2019-04-05T10:56:25.026Z,7.17
2019-04-05T10:58:54.766Z,7.28
2019-04-05T11:01:24.491Z,7.17
2019-04-05T11:03:54.302Z,6.78
2019-04-05T11:06:24.084Z,7.47
2019-04-05T11:08:53.798Z,6.87
2019-04-05T11:11:23.633Z,7.72
2019-04-05T11:13:53.496Z,8.30
2019-04-05T11:16:23.304Z,6.85
2019-04-05T11:18:53.042Z,7.08
2019-04-05T11:21:22.750Z,7.22
2019-04-05T11:23:53.591Z,7.28
2019-04-05T11:26:24.128Z,6.70
2019-04-05T11:28:54.407Z,8.05
2019-04-05T11:31:24.197Z,7.65
2019-04-05T11:33:54.390Z,8.03
2019-04-05T11:36:25.133Z,7.40
2019-04-05T11:38:55.388Z,7.33
2019-04-05T11:41:28.551Z,7.50
2019-04-05T11:44:01.450Z,7.60
2019-04-05T11:46:34.066Z,7.83
2019-04-05T11:49:04.561Z,7.62
2019-04-05T11:51:34.482Z,7.80
2019-04-05T11:54:04.240Z,7.83
2019-04-05T11:56:33.988Z,7.92
2019-04-05T11:59:05.385Z,8.55
2019-04-05T12:01:39.570Z,7.22
2019-04-05T12:04:09.282Z,8.53
2019-04-05T12:06:39.082Z,9.63
2019-04-05T12:09:09.749Z,8.73
2019-04-05T12:11:39.540Z,8.85
2019-04-05T12:14:09.375Z,9.38
2019-04-05T12:16:39.184Z,8.98
2019-04-05T12:19:09.481Z,10.10
2019-04-05T12:21:39.373Z,9.28
2019-04-05T12:24:09.090Z,10.58
2019-04-05T12:26:38.908Z,9.05
2019-04-05T12:29:08.763Z,9.60
2019-04-05T12:31:38.518Z,9.78
2019-04-05T12:34:08.397Z,11.28
2019-04-05T12:36:38.196Z,10.18
2019-04-05T12:39:08.641Z,11.30
2019-04-05T12:41:40.983Z,9.65
2019-04-05T12:44:14.157Z,10.80
2019-04-05T12:46:43.442Z,9.53
2019-04-05T12:49:13.375Z,10.23
2019-04-05T12:51:45.570Z,10.90
2019-04-05T12:54:16.065Z,9.68
2019-04-05T12:56:45.879Z,10.50
2019-04-05T12:59:15.609Z,8.90
2019-04-05T13:01:45.523Z,9.98
2019-04-05T13:04:20.250Z,10.25
2019-04-05T13:06:52.476Z,9.33
2019-04-05T13:09:21.422Z,8.88
2019-04-05T13:11:52.307Z,10.18
2019-04-05T13:14:22.063Z,9.55
2019-04-05T13:16:52.223Z,10.53
2019-04-05T13:19:21.969Z,10.30
2019-04-05T13:21:51.746Z,10.20
2019-04-05T13:24:21.626Z,9.30
2019-04-05T13:26:52.079Z,9.18
2019-04-05T13:29:21.841Z,8.80
2019-04-05T13:31:52.562Z,8.60
2019-04-05T13:34:25.603Z,8.98
2019-04-05T13:36:54.038Z,9.95
2019-04-05T13:39:23.753Z,10.10
2019-04-05T13:41:53.808Z,9.35
2019-04-05T13:44:23.545Z,8.70
2019-04-05T13:46:53.381Z,8.43
2019-04-05T13:49:23.293Z,7.50
2019-04-05T13:51:53.088Z,8.03
2019-04-05T13:54:22.842Z,8.43
2019-04-05T13:56:52.607Z,8.73
2019-04-05T13:59:22.409Z,9.03
2019-04-05T14:02:05.333Z,8.95
2019-04-05T14:04:24.571Z,9.23
2019-04-05T14:06:54.317Z,9.50
2019-04-05T14:09:24.242Z,8.80
2019-04-05T14:11:53.991Z,7.70
2019-04-05T14:14:23.860Z,8.38
2019-04-05T14:16:54.204Z,8.53
2019-04-05T14:19:24.034Z,7.58
2019-04-05T14:22:07.519Z,8.38
2019-04-05T14:24:26.199Z,8.25
2019-04-05T14:26:56.021Z,8.58
2019-04-05T14:29:25.803Z,9.00
2019-04-05T14:31:55.599Z,9.10
2019-04-05T14:34:25.434Z,9.40
2019-04-05T14:36:55.296Z,9.73
2019-04-05T14:39:25.190Z,8.73
2019-04-05T14:41:55.169Z,8.80
2019-04-05T14:44:24.998Z,8.75
2019-04-05T14:46:57.793Z,9.10
2019-04-05T14:49:30.245Z,9.13
2019-04-05T14:52:00.661Z,9.00
2019-04-05T14:54:30.797Z,8.83
2019-04-05T14:57:05.475Z,9.53
2019-04-05T14:59:32.891Z,9.10
2019-04-05T15:02:03.602Z,8.58
2019-04-05T15:04:33.406Z,8.75
2019-04-05T15:07:03.136Z,8.88
2019-04-05T15:09:33.008Z,8.58
2019-04-05T15:12:02.839Z,8.80
2019-04-05T15:14:32.652Z,9.28
2019-04-05T15:17:04.236Z,8.73
2019-04-05T15:19:34.223Z,8.28
2019-04-05T15:22:06.017Z,7.78
2019-04-05T15:24:36.126Z,8.35
2019-04-05T15:27:05.987Z,7.92
2019-04-05T15:29:35.813Z,7.78
2019-04-05T15:32:06.413Z,8.03
2019-04-05T15:34:36.160Z,8.18
2019-04-05T15:37:05.954Z,8.23
2019-04-05T15:39:36.119Z,7.92
2019-04-05T15:42:07.630Z,7.83
2019-04-05T15:44:37.968Z,8.45
2019-04-05T15:47:07.689Z,7.95
2019-04-05T15:49:37.451Z,7.53
2019-04-05T15:52:18.076Z,8.00
2019-04-05T15:54:42.977Z,7.85
2019-04-05T15:57:11.775Z,8.25
2019-04-05T15:59:41.549Z,8.15
2019-04-05T16:02:11.289Z,7.92
2019-04-05T16:04:41.079Z,8.65
2019-04-05T16:07:10.850Z,8.80
2019-04-05T16:09:40.706Z,7.15
2019-04-05T16:12:10.663Z,8.58
2019-04-05T16:14:40.546Z,7.50
2019-04-05T16:17:12.836Z,7.83
2019-04-05T16:19:44.160Z,7.87
2019-04-05T16:22:30.910Z,8.23
2019-04-05T16:24:51.639Z,8.13
2019-04-05T16:27:22.458Z,7.45
2019-04-05T16:29:52.348Z,8.33
2019-04-05T16:32:22.287Z,7.78
2019-04-05T16:34:52.150Z,7.70
2019-04-05T16:37:21.988Z,7.65
2019-04-05T16:39:53.046Z,7.75
2019-04-05T16:42:23.467Z,7.67
2019-04-05T16:44:53.354Z,8.20
2019-04-05T16:47:26.219Z,8.18
2019-04-05T16:49:55.729Z,7.58
2019-04-05T16:52:25.797Z,8.70
2019-04-05T16:54:55.594Z,8.13
2019-04-05T16:57:25.367Z,8.30
2019-04-05T17:00:02.536Z,8.03
2019-04-05T17:02:32.391Z,7.87
2019-04-05T17:05:02.160Z,7.92
2019-04-05T17:07:32.728Z,8.60
2019-04-05T17:10:03.347Z,7.90
2019-04-05T17:12:34.734Z,8.25
2019-04-05T17:15:08.956Z,7.87
2019-04-05T17:17:41.257Z,9.25
2019-04-05T17:20:11.924Z,8.13
2019-04-05T17:22:43.544Z,7.67
2019-04-05T17:25:13.309Z,8.03
2019-04-05T17:27:45.075Z,8.05
2019-04-05T17:30:49.780Z,8.78
2019-04-05T17:33:24.587Z,7.47
2019-04-05T17:38:23.534Z,8.35
2019-04-05T17:40:55.108Z,9.33
2019-04-05T17:43:25.560Z,8.15
2019-04-05T17:45:56.397Z,9.25
2019-04-05T17:48:26.261Z,9.35
2019-04-05T17:50:58.938Z,8.68
2019-04-05T17:53:30.425Z,9.10
2019-04-05T17:56:02.011Z,10.25
2019-04-05T17:58:33.801Z,9.83
2019-04-05T18:01:05.989Z,9.83
2019-04-05T18:03:37.187Z,9.30
2019-04-05T18:06:07.065Z,10.82
2019-04-05T18:08:38.899Z,11.40
2019-04-05T18:11:10.511Z,11.33
2019-04-05T18:13:41.444Z,11.12
2019-04-05T18:16:11.700Z,11.15
2019-04-05T18:18:41.540Z,11.38
2019-04-05T18:21:27.081Z,11.85
2019-04-05T18:23:58.597Z,12.55
2019-04-05T18:26:28.424Z,11.63
2019-04-05T18:28:58.444Z,12.05
2019-04-05T18:31:28.369Z,11.60
2019-04-05T18:33:58.384Z,12.25
2019-04-05T18:36:28.249Z,12.80
2019-04-05T18:38:58.171Z,12.78
2019-04-05T18:41:33.778Z,13.18
2019-04-05T18:44:03.773Z,13.70
2019-04-05T18:46:33.561Z,12.40
2019-04-05T18:49:03.394Z,12.75
2019-04-05T18:51:34.209Z,12.63
2019-04-05T18:54:04.242Z,13.10
2019-04-05T18:56:34.172Z,13.53
2019-04-05T18:59:05.021Z,12.40
2019-04-05T19:01:34.896Z,12.88
2019-04-05T19:04:05.653Z,12.65
2019-04-05T19:06:35.542Z,12.75
2019-04-05T19:09:06.985Z,13.08
2019-04-05T19:11:36.701Z,12.40
2019-04-05T19:14:07.517Z,11.88
2019-04-05T19:16:37.232Z,12.68
2019-04-05T19:19:07.070Z,13.53
2019-04-05T19:21:37.938Z,13.68
2019-04-05T19:24:07.847Z,14.90
2019-04-05T19:26:38.912Z,14.53
2019-04-05T19:29:08.825Z,13.90
2019-04-05T19:49:22.942Z,15.38
2019-04-05T19:51:52.752Z,16.23
2019-04-05T19:54:22.591Z,15.45
2019-04-05T19:56:52.598Z,17.27
2019-04-05T19:59:22.853Z,16.95
2019-04-05T20:01:52.675Z,16.73
2019-04-05T20:04:23.381Z,17.15
2019-04-05T20:06:58.331Z,16.65
2019-04-05T20:09:26.591Z,16.65
2019-04-05T20:11:56.567Z,17.25
2019-04-05T20:14:26.429Z,16.25
2019-04-05T20:16:57.099Z,18.67
2019-04-05T20:19:26.915Z,18.60
2019-04-05T20:21:56.684Z,18.52
2019-04-05T20:24:26.493Z,17.95
2019-04-05T20:26:56.255Z,19.07
2019-04-05T20:29:26.694Z,18.90
2019-04-05T20:31:57.531Z,19.98
2019-04-05T20:34:27.526Z,19.60
2019-04-05T20:36:57.323Z,20.37
2019-04-05T20:39:27.116Z,19.12
2019-04-05T20:41:56.903Z,20.12
2019-04-05T20:44:27.145Z,19.75
2019-04-05T20:46:56.910Z,21.50
2019-04-05T20:49:26.728Z,20.68
2019-04-05T20:51:56.579Z,19.82
2019-04-05T20:54:26.422Z,20.60
2019-04-05T20:56:56.245Z,22.02
2019-04-05T20:59:26.084Z,21.25
2019-04-05T21:01:56.827Z,20.72
2019-04-05T21:04:26.560Z,22.05
2019-04-05T21:06:56.363Z,22.50
2019-04-05T21:09:26.099Z,22.02
2019-04-05T21:11:56.064Z,22.90
2019-04-05T21:14:25.882Z,21.73
2019-04-05T21:16:55.751Z,23.27
2019-04-05T21:19:27.136Z,22.93
2019-04-05T21:21:57.192Z,23.67
2019-04-05T21:24:36.115Z,24.20
2019-04-05T21:26:59.479Z,26.15
2019-04-05T21:29:29.496Z,24.50
2019-04-05T21:32:00.360Z,25.10
2019-04-05T21:34:30.323Z,26.77
2019-04-05T21:37:02.432Z,28.27
2019-04-05T21:39:32.282Z,27.55
2019-04-05T21:42:03.157Z,28.67
2019-04-05T21:44:33.899Z,26.68
2019-04-05T21:47:03.820Z,26.50
2019-04-05T21:49:33.707Z,26.97
2019-04-05T21:52:03.654Z,26.73
2019-04-05T21:54:33.489Z,27.75
2019-04-05T21:57:03.218Z,26.82
2019-04-05T21:59:34.296Z,28.40
2019-04-05T22:02:04.305Z,25.48
2019-04-05T22:04:34.122Z,28.80
2019-04-05T22:07:05.574Z,30.02
2019-04-05T22:09:35.678Z,28.80
2019-04-05T22:12:08.045Z,29.52
2019-04-05T22:14:37.200Z,30.15
2019-04-05T22:17:07.105Z,28.57
2019-04-05T22:19:37.481Z,29.32
2019-04-05T22:22:09.269Z,30.55
2019-04-05T22:24:39.141Z,29.92
2019-04-05T22:27:09.151Z,30.70
2019-04-05T22:29:39.166Z,30.95
2019-04-05T22:34:53.584Z,33.02
2019-04-05T22:37:23.530Z,31.60
2019-04-05T22:39:54.150Z,32.83
2019-04-05T22:42:24.033Z,34.63
2019-04-05T22:44:54.399Z,34.40
2019-04-05T22:47:27.011Z,33.40
2019-04-05T22:49:56.906Z,36.15
2019-04-05T22:52:26.794Z,36.90
2019-04-05T22:54:57.364Z,35.38
2019-04-05T22:57:27.069Z,38.25
2019-04-05T22:59:57.008Z,41.98
2019-04-05T23:02:26.918Z,42.27
2019-04-05T23:04:56.693Z,41.58
2019-04-05T23:07:26.559Z,43.63
2019-04-05T23:09:56.360Z,45.10
2019-04-05T23:12:26.257Z,45.52
2019-04-05T23:14:56.070Z,46.63
2019-04-05T23:17:25.933Z,49.10
2019-04-05T23:19:55.821Z,47.10
2019-04-05T23:22:25.593Z,44.13
2019-04-05T23:24:56.354Z,46.35
2019-04-05T23:27:26.297Z,42.35
2019-04-05T23:29:56.011Z,42.48
2019-04-05T23:32:26.130Z,42.60
2019-04-05T23:34:55.830Z,40.78
2019-04-05T23:37:25.550Z,42.43
2019-04-05T23:39:55.376Z,43.13
2019-04-05T23:42:25.263Z,43.05
2019-04-05T23:44:55.032Z,41.92
2019-04-05T23:47:26.646Z,41.53
2019-04-05T23:49:56.494Z,41.60
2019-04-05T23:52:26.342Z,44.58
2019-04-05T23:54:56.174Z,39.10
2019-04-05T23:57:25.982Z,42.20
2019-04-05T23:59:57.002Z,43.02
